Adel, IA

5:29 AM CST on December 20, 2014 (GMT -0600)
Adel IA | Change Station
CLOSE
Current Station
Personal Weather Station
Location: Adel, IA
Elevation: 1070 ft
Nearby Weather Stations
Active Advisory: Special Statement

Elev 1070 ft 41.61 °N, 94.02 °W | Updated 12 minutes ago

Overcast
Overcast
29.8 °F
Feels Like 25 °F
N
4.7
Wind Variable Wind from SSW

Today
High -- | Low -- °F
--% Chance of Precip.
Yesterday
High -- | Low -- °F
Precip. -- in
7:39 AM 4:48 PM
Waning Crescent, 3% visible
Pressure 30.15 in
Visibility 5.0 miles
Clouds Mostly Cloudy 1000 ft
Overcast 1600 ft
Windchill 25 °F
Dew Point 28 °F
Humidity 94%
Rainfall 0.00 in
Snow Depth Not available.
UV 0 out of 12
Pollen .10 out of 12
Air Quality Not available.
Flu Activity Not available.
METAR KPRO 201115Z AUTO 20004KT 5SM BR BKN010 OVC016 M01/M01 A3015 RMK AO2 T10071010

More Conditions Fewer Conditions

Pressure 30.15 in
Visibility 5.0 miles
Clouds Mostly Cloudy 1000 ft
Overcast 1600 ft
Windchill 25 °F
Dew Point 28 °F
Humidity 94%
Rainfall 0.00 in
Snow Depth Not available.
UV 0 out of 12
Pollen .10 out of 12
Air Quality Not available.
Flu Activity Not available.
METAR KPRO 201115Z AUTO 20004KT 5SM BR BKN010 OVC016 M01/M01 A3015 RMK AO2 T10071010

More Conditions Fewer Conditions

10-Day Weather Forecast

Almanac

Astronomy

Dec. 20, 2014 Rise Set
Actual Time
Civil Twilight
Nautical Twilight
Astronomical Twilight
Moon
Length of Visible Light
Length of Day
Tomorrow will be .
, % of the Moon is Illuminated

Today's Extremes

State Highs State Lows

Community

WunderPhotos

Upload Photos

1,779,151 photos uploaded!

WunderBlogs® & News

Nearby

Air Quality

  Air Quality AQ Index Pollutant
Not available.

Snow Depth

Station Depth Elevation

Earthquake Activity

City Distance Mag. Time & Date
Minimum magnitude displayed is 2.5.

Coastal Water Temperatures

Place Temperature

Nearby Weather Stations